logo
Search for airport 
image banner adimage banner adimage banner ad
image banner ad

7CA3 - Mercy Medical Center

Located in Redding, United States

ICAO - 7CA3, IATA -

Data provided by Airmate  

General information

Coordinates: N40°34'20" W122°23'48"
Elevation is 715 feet MSL.
Magnetic variation is 17° East
View others Airports in California

Operational data

Special qualification required
Current time UTC:
Current local time:
Weather at : KRDD - Redding Muni ( 11 km )
METAR: KRDD 100120Z 00000KT 10SM SCT016 OVC055 07/05 A3004 RMK AO2 T00670050
TAF: KRDD 070522Z 0706/0806 VRB04KT P6SM SKC FM080300 19003KT P6SM SCT250
View NOTAMs / SUP AIP / TFR affecting this airport [VIEW]
Communications frequencies: [VIEW]

Runways:

Airport contact information

Address: Redding United States

Satellite view of 7CA3